createdAt,value
2022-08-28T00:02:13.825Z,16.28
2022-08-28T00:04:44.400Z,16.24
2022-08-28T00:07:14.784Z,16.25
2022-08-28T00:09:45.032Z,16.21
2022-08-28T00:12:15.473Z,16.16
2022-08-28T00:14:45.572Z,16.10
2022-08-28T00:17:16.001Z,16.08
2022-08-28T00:19:46.380Z,16.07
2022-08-28T00:22:16.575Z,16.07
2022-08-28T00:24:46.861Z,16.02
2022-08-28T00:27:17.366Z,16.02
2022-08-28T00:29:47.718Z,16.01
2022-08-28T00:32:18.186Z,15.99
2022-08-28T00:34:48.315Z,15.96
2022-08-28T00:37:19.000Z,15.89
2022-08-28T00:39:49.376Z,15.88
2022-08-28T00:42:19.506Z,15.86
2022-08-28T00:44:50.185Z,15.83
2022-08-28T00:47:20.599Z,15.82
2022-08-28T00:49:51.020Z,15.76
2022-08-28T00:52:21.460Z,15.74
2022-08-28T00:54:58.540Z,15.70
2022-08-28T00:57:22.380Z,15.69
2022-08-28T00:59:52.926Z,15.72
2022-08-28T01:02:23.774Z,15.75
2022-08-28T01:04:53.879Z,15.74
2022-08-28T01:07:24.313Z,15.73
2022-08-28T01:09:54.717Z,15.70
2022-08-28T01:12:24.935Z,15.71
2022-08-28T01:14:55.212Z,15.67
2022-08-28T01:17:25.835Z,15.68
2022-08-28T01:19:56.080Z,15.66
2022-08-28T01:22:26.594Z,15.65
2022-08-28T01:24:57.267Z,15.60
2022-08-28T01:27:27.673Z,15.61
2022-08-28T01:29:57.768Z,15.59
2022-08-28T01:32:27.884Z,15.56
2022-08-28T01:34:58.089Z,15.55
2022-08-28T01:37:28.465Z,15.53
2022-08-28T01:39:58.894Z,15.52
2022-08-28T01:42:29.327Z,15.48
2022-08-28T01:44:59.732Z,15.46
2022-08-28T01:47:30.172Z,15.45
2022-08-28T01:50:00.578Z,15.42
2022-08-28T01:52:31.053Z,15.39
2022-08-28T01:55:01.565Z,15.40
2022-08-28T01:57:31.950Z,15.39
2022-08-28T02:00:02.344Z,15.38
2022-08-28T02:02:32.520Z,15.37
2022-08-28T02:05:03.070Z,15.37
2022-08-28T02:07:33.152Z,15.36
2022-08-28T02:10:03.496Z,15.33
2022-08-28T02:12:33.720Z,15.33
2022-08-28T02:15:04.100Z,15.31
2022-08-28T02:17:34.555Z,15.31
2022-08-28T02:20:04.999Z,15.28
2022-08-28T02:22:35.227Z,15.26
2022-08-28T02:25:05.589Z,15.23
2022-08-28T02:27:36.087Z,15.23
2022-08-28T02:30:06.508Z,15.21
2022-08-28T02:32:36.938Z,15.19
2022-08-28T02:35:10.974Z,15.17
2022-08-28T02:37:37.859Z,15.14
2022-08-28T02:40:08.323Z,15.12
2022-08-28T02:42:38.743Z,15.11
2022-08-28T02:45:09.157Z,15.04
2022-08-28T02:47:39.635Z,14.98
2022-08-28T02:50:10.052Z,14.97
2022-08-28T02:52:40.628Z,14.96
2022-08-28T02:55:10.951Z,14.91
2022-08-28T02:57:41.439Z,14.91
2022-08-28T03:00:11.863Z,14.91
2022-08-28T03:02:42.389Z,14.88
2022-08-28T03:05:12.757Z,14.88
2022-08-28T03:07:43.247Z,14.86
2022-08-28T03:10:13.667Z,14.85
2022-08-28T03:12:44.162Z,14.88
2022-08-28T03:15:14.573Z,14.84
2022-08-28T03:17:45.065Z,14.80
2022-08-28T03:20:15.479Z,14.79
2022-08-28T03:22:45.940Z,14.79
2022-08-28T03:25:16.377Z,14.77
2022-08-28T03:27:46.875Z,14.80
2022-08-28T03:30:17.304Z,14.75
2022-08-28T03:32:47.769Z,14.73
2022-08-28T03:35:17.852Z,14.72
2022-08-28T03:37:48.321Z,14.70
2022-08-28T03:40:18.822Z,14.72
2022-08-28T03:42:53.147Z,14.69
2022-08-28T03:45:19.381Z,14.66
2022-08-28T03:47:49.635Z,14.65
2022-08-28T03:50:20.019Z,14.60
2022-08-28T03:52:50.156Z,14.52
2022-08-28T03:55:20.603Z,14.48
2022-08-28T03:57:51.127Z,14.49
2022-08-28T04:00:21.538Z,14.49
2022-08-28T04:02:51.779Z,14.45
2022-08-28T04:05:22.195Z,14.43
2022-08-28T04:07:52.702Z,14.47
2022-08-28T04:10:23.146Z,14.48
2022-08-28T04:12:53.668Z,14.47
2022-08-28T04:15:23.836Z,14.45
2022-08-28T04:17:54.305Z,14.44
2022-08-28T04:20:24.741Z,14.43
2022-08-28T04:22:55.387Z,14.46
2022-08-28T04:25:25.691Z,14.48
2022-08-28T04:27:56.207Z,14.49
2022-08-28T04:30:26.616Z,14.49
2022-08-28T04:32:57.110Z,14.43
2022-08-28T04:35:27.196Z,14.40
2022-08-28T04:37:58.936Z,14.39
2022-08-28T04:40:28.159Z,14.42
2022-08-28T04:42:58.638Z,14.42
2022-08-28T04:45:29.124Z,14.37
2022-08-28T04:48:00.269Z,14.41
2022-08-28T04:50:30.039Z,14.40
2022-08-28T04:53:00.449Z,14.43
2022-08-28T04:55:53.720Z,14.48
2022-08-28T04:58:01.215Z,14.52
2022-08-28T05:00:31.666Z,14.51
2022-08-28T05:03:02.098Z,14.52
2022-08-28T05:05:32.575Z,14.59
2022-08-28T05:08:03.032Z,14.61
2022-08-28T05:10:33.717Z,14.63
2022-08-28T05:13:04.521Z,14.65
2022-08-28T05:15:34.708Z,14.63
2022-08-28T05:18:05.195Z,14.67
2022-08-28T05:20:35.610Z,14.72
2022-08-28T05:23:06.028Z,14.77
2022-08-28T05:25:36.217Z,14.81
2022-08-28T05:28:06.674Z,14.83
2022-08-28T05:30:37.032Z,14.73
2022-08-28T05:33:07.447Z,14.70
2022-08-28T05:35:37.912Z,14.70
2022-08-28T05:38:08.356Z,14.78
2022-08-28T05:40:38.892Z,14.69
2022-08-28T05:43:09.267Z,14.73
2022-08-28T05:45:39.777Z,14.76
2022-08-28T05:48:10.173Z,14.69
2022-08-28T05:50:43.068Z,14.69
2022-08-28T05:53:11.064Z,14.73
2022-08-28T05:55:41.265Z,14.80
2022-08-28T05:58:11.814Z,14.66
2022-08-28T06:00:42.168Z,14.73
2022-08-28T06:03:12.631Z,14.73
2022-08-28T06:05:43.052Z,14.63
2022-08-28T06:08:13.696Z,14.68
2022-08-28T06:10:43.947Z,14.71
2022-08-28T06:13:14.400Z,14.72
2022-08-28T06:15:44.894Z,14.78
2022-08-28T06:18:15.272Z,14.80
2022-08-28T06:20:45.510Z,14.87
2022-08-28T06:23:15.542Z,14.93
2022-08-28T06:25:46.006Z,15.00
2022-08-28T06:28:16.431Z,15.02
2022-08-28T06:31:17.946Z,15.00
2022-08-28T06:33:17.291Z,15.03
2022-08-28T06:35:47.758Z,15.08
2022-08-28T06:38:18.154Z,15.11
2022-08-28T06:40:48.808Z,15.15
2022-08-28T06:43:19.040Z,15.14
2022-08-28T06:45:49.257Z,15.24
2022-08-28T06:48:19.630Z,15.31
2022-08-28T06:50:50.093Z,15.39
2022-08-28T06:53:20.537Z,15.36
2022-08-28T06:55:50.971Z,15.47
2022-08-28T06:58:21.348Z,15.58
2022-08-28T07:00:59.587Z,15.62
2022-08-28T07:03:21.919Z,15.75
2022-08-28T07:05:52.368Z,15.84
2022-08-28T07:08:22.725Z,15.87
2022-08-28T07:10:53.192Z,15.97
2022-08-28T07:13:23.553Z,16.09
2022-08-28T07:15:54.027Z,16.18
2022-08-28T07:18:24.364Z,16.26
2022-08-28T07:20:54.525Z,16.25
2022-08-28T07:23:24.843Z,16.28
2022-08-28T07:25:55.242Z,16.36
2022-08-28T07:28:25.585Z,16.34
2022-08-28T07:30:56.071Z,16.33
2022-08-28T07:33:26.166Z,16.36
2022-08-28T07:35:56.455Z,16.42
2022-08-28T07:38:26.798Z,16.45
2022-08-28T07:40:57.215Z,16.57
2022-08-28T07:43:27.543Z,16.48
2022-08-28T07:45:57.975Z,16.60
2022-08-28T07:48:28.267Z,16.78
2022-08-28T07:50:58.618Z,16.75
2022-08-28T07:53:31.208Z,16.86
2022-08-28T07:55:59.360Z,16.96
2022-08-28T07:58:29.669Z,17.01
2022-08-28T08:01:00.018Z,17.07
2022-08-28T08:03:30.414Z,17.09
2022-08-28T08:06:00.723Z,17.22
2022-08-28T08:08:31.040Z,17.22
2022-08-28T08:11:01.433Z,17.23
2022-08-28T08:13:31.732Z,17.31
2022-08-28T08:16:02.195Z,17.44
2022-08-28T08:18:32.169Z,17.50
2022-08-28T08:21:02.631Z,17.63
2022-08-28T08:23:32.886Z,17.62
2022-08-28T08:26:03.001Z,17.64
2022-08-28T08:28:33.243Z,17.61
2022-08-28T08:31:03.668Z,17.52
2022-08-28T08:33:33.930Z,17.71
2022-08-28T08:36:04.295Z,17.72
2022-08-28T08:38:34.612Z,17.96
2022-08-28T08:41:04.986Z,18.08
2022-08-28T08:43:35.286Z,18.12
2022-08-28T08:46:05.869Z,18.26
2022-08-28T08:48:35.956Z,18.32
2022-08-28T08:51:06.298Z,18.35
2022-08-28T08:53:36.599Z,18.49
2022-08-28T08:56:06.959Z,18.41
2022-08-28T08:58:37.260Z,18.48
2022-08-28T09:01:07.666Z,18.52
2022-08-28T09:03:37.951Z,18.64
2022-08-28T09:06:07.975Z,18.58
2022-08-28T09:08:38.286Z,18.44
2022-08-28T09:11:08.639Z,18.50
2022-08-28T09:13:39.040Z,18.66
2022-08-28T09:16:09.503Z,18.69
2022-08-28T09:18:39.610Z,18.76
2022-08-28T09:21:09.954Z,18.97
2022-08-28T09:23:40.242Z,19.01
2022-08-28T09:26:10.606Z,19.08
2022-08-28T09:28:40.892Z,19.26
2022-08-28T09:31:11.204Z,19.08
2022-08-28T09:33:41.775Z,19.07
2022-08-28T09:36:11.816Z,19.08
2022-08-28T09:38:42.097Z,18.99
2022-08-28T09:41:12.448Z,19.09
2022-08-28T09:43:42.759Z,19.11
2022-08-28T09:46:13.100Z,19.21
2022-08-28T09:48:43.413Z,19.09
2022-08-28T09:51:13.664Z,19.24
2022-08-28T09:53:43.938Z,19.30
2022-08-28T09:56:14.290Z,19.53
2022-08-28T09:58:44.575Z,19.63
2022-08-28T10:01:14.938Z,19.66
2022-08-28T10:03:45.161Z,19.70
2022-08-28T10:06:15.474Z,19.81
2022-08-28T10:08:45.808Z,19.92
2022-08-28T10:11:16.080Z,19.94
2022-08-28T10:13:46.334Z,20.02
2022-08-28T10:16:16.772Z,19.83
2022-08-28T10:18:47.009Z,19.68
2022-08-28T10:21:17.384Z,19.63
2022-08-28T10:23:47.482Z,19.68
2022-08-28T10:26:17.798Z,19.72
2022-08-28T10:28:48.068Z,19.88
2022-08-28T10:31:18.448Z,19.80
2022-08-28T10:33:48.758Z,19.85
2022-08-28T10:36:33.797Z,20.00
2022-08-28T10:38:52.927Z,20.04
2022-08-28T10:41:19.538Z,20.16
2022-08-28T10:43:49.908Z,20.23
2022-08-28T10:46:24.151Z,20.51
2022-08-28T10:48:50.524Z,20.66
2022-08-28T10:51:20.818Z,20.59
2022-08-28T10:53:51.150Z,20.64
2022-08-28T10:56:21.365Z,20.64
2022-08-28T10:58:51.595Z,20.50
2022-08-28T11:01:21.920Z,20.63
2022-08-28T11:03:52.114Z,20.64
2022-08-28T11:06:22.399Z,20.36
2022-08-28T11:08:52.673Z,20.38
2022-08-28T11:11:22.950Z,20.52
2022-08-28T11:13:53.190Z,20.60
2022-08-28T11:16:23.548Z,20.53
2022-08-28T11:18:53.790Z,20.67
2022-08-28T11:21:23.991Z,20.56
2022-08-28T11:23:54.337Z,20.49
2022-08-28T11:26:24.540Z,20.59
2022-08-28T11:28:54.878Z,20.39
2022-08-28T11:31:29.132Z,20.31
2022-08-28T11:33:55.307Z,20.34
2022-08-28T11:36:25.560Z,20.57
2022-08-28T11:38:55.828Z,20.78
2022-08-28T11:41:26.115Z,20.84
2022-08-28T11:43:56.340Z,20.79
2022-08-28T11:46:26.630Z,20.71
2022-08-28T11:48:56.853Z,20.57
2022-08-28T11:51:27.158Z,20.50
2022-08-28T11:53:57.392Z,20.38
2022-08-28T11:56:31.303Z,20.54
2022-08-28T11:58:57.947Z,20.53
2022-08-28T12:01:28.208Z,20.50
2022-08-28T12:03:58.518Z,20.38
2022-08-28T12:06:28.747Z,20.27
2022-08-28T12:08:59.046Z,20.46
2022-08-28T12:11:29.395Z,20.44
2022-08-28T12:13:59.556Z,20.52
2022-08-28T12:16:29.927Z,20.43
2022-08-28T12:19:00.124Z,20.43
2022-08-28T12:21:30.429Z,20.19
2022-08-28T12:24:05.296Z,20.38
2022-08-28T12:26:31.011Z,20.32
2022-08-28T12:29:01.269Z,20.62
2022-08-28T12:31:31.584Z,20.76
2022-08-28T12:34:01.833Z,21.03
2022-08-28T12:36:32.311Z,21.12
2022-08-28T12:39:02.353Z,20.84
2022-08-28T12:41:32.669Z,20.63
2022-08-28T12:44:02.864Z,20.58
2022-08-28T12:46:33.221Z,20.69
2022-08-28T12:49:03.424Z,20.32
2022-08-28T12:51:33.773Z,20.40
2022-08-28T12:54:03.903Z,20.54
2022-08-28T12:56:34.200Z,20.62
2022-08-28T12:59:04.421Z,20.81
2022-08-28T13:01:34.803Z,20.97
2022-08-28T13:04:04.920Z,20.97
2022-08-28T13:06:35.188Z,20.91
2022-08-28T13:09:05.412Z,20.69
2022-08-28T13:11:35.699Z,20.70
2022-08-28T13:14:05.917Z,20.75
2022-08-28T13:16:36.283Z,20.68
2022-08-28T13:19:06.446Z,20.68
2022-08-28T13:21:36.728Z,20.89
2022-08-28T13:24:06.967Z,20.95
2022-08-28T13:26:37.261Z,20.98
2022-08-28T13:29:07.485Z,20.80
2022-08-28T13:31:37.803Z,20.70
2022-08-28T13:34:08.032Z,20.89
2022-08-28T13:36:38.308Z,20.95
2022-08-28T13:39:08.569Z,21.03
2022-08-28T13:41:38.911Z,20.83
2022-08-28T13:44:09.123Z,20.92
2022-08-28T13:46:39.361Z,20.91
2022-08-28T13:49:09.683Z,20.78
2022-08-28T13:51:39.903Z,20.93
2022-08-28T13:54:10.073Z,20.87
2022-08-28T13:56:40.363Z,20.93
2022-08-28T13:59:10.578Z,20.93
2022-08-28T14:01:42.254Z,20.95
2022-08-28T14:04:11.222Z,20.92
2022-08-28T14:06:41.397Z,21.01
2022-08-28T14:09:11.631Z,21.18
2022-08-28T14:11:41.917Z,20.89
2022-08-28T14:14:12.206Z,20.55
2022-08-28T14:16:42.547Z,20.70
2022-08-28T14:19:12.675Z,20.65
2022-08-28T14:21:43.249Z,20.68
2022-08-28T14:24:13.482Z,20.51
2022-08-28T14:26:43.853Z,20.31
2022-08-28T14:29:14.041Z,20.36
2022-08-28T14:31:44.371Z,20.14
2022-08-28T14:34:14.550Z,20.25
2022-08-28T14:36:44.858Z,20.28
2022-08-28T14:39:15.100Z,20.39
2022-08-28T14:41:45.430Z,20.40
2022-08-28T14:44:15.675Z,20.52
2022-08-28T14:46:45.935Z,20.53
2022-08-28T14:49:16.227Z,20.71
2022-08-28T14:51:46.407Z,20.73
2022-08-28T14:54:16.619Z,20.50
2022-08-28T14:56:46.929Z,20.52
2022-08-28T14:59:21.876Z,20.53
2022-08-28T15:01:47.378Z,20.38
2022-08-28T15:04:17.729Z,20.39
2022-08-28T15:06:47.880Z,20.33
2022-08-28T15:09:18.085Z,20.44
2022-08-28T15:11:48.468Z,20.73
2022-08-28T15:14:18.674Z,20.74
2022-08-28T15:16:48.935Z,20.64
2022-08-28T15:19:19.066Z,20.60
2022-08-28T15:21:49.338Z,20.53
2022-08-28T15:24:19.558Z,20.60
2022-08-28T15:26:49.912Z,20.54
2022-08-28T15:29:20.066Z,20.53
2022-08-28T15:31:50.442Z,20.44
2022-08-28T15:34:20.583Z,20.43
2022-08-28T15:36:54.571Z,20.33
2022-08-28T15:39:21.101Z,20.42
2022-08-28T15:41:51.427Z,20.41
2022-08-28T15:44:21.754Z,20.42
2022-08-28T15:46:51.964Z,20.62
2022-08-28T15:49:22.281Z,20.80
2022-08-28T15:51:52.490Z,20.71
2022-08-28T15:54:22.718Z,20.39
2022-08-28T15:56:53.904Z,20.45
2022-08-28T15:59:23.808Z,20.29
2022-08-28T16:01:53.585Z,20.26
2022-08-28T16:04:23.837Z,20.05
2022-08-28T16:06:58.527Z,20.11
2022-08-28T16:09:24.287Z,19.83
2022-08-28T16:11:54.666Z,19.74
2022-08-28T16:14:24.653Z,19.60
2022-08-28T16:16:55.261Z,19.60
2022-08-28T16:19:25.432Z,19.66
2022-08-28T16:21:55.704Z,19.73
2022-08-28T16:24:25.964Z,19.69
2022-08-28T16:26:56.262Z,19.80
2022-08-28T16:29:26.499Z,19.70
2022-08-28T16:31:56.997Z,19.71
2022-08-28T16:34:31.255Z,19.64
2022-08-28T16:36:57.346Z,19.66
2022-08-28T16:39:27.608Z,19.70
2022-08-28T16:41:57.979Z,19.78
2022-08-28T16:44:28.199Z,19.98
2022-08-28T16:46:58.644Z,19.84
2022-08-28T16:49:28.750Z,19.77
2022-08-28T16:51:59.040Z,19.76
2022-08-28T16:54:29.289Z,19.60
2022-08-28T16:56:59.620Z,19.49
2022-08-28T16:59:29.846Z,19.44
2022-08-28T17:02:00.229Z,19.49
2022-08-28T17:04:30.502Z,19.59
2022-08-28T17:07:00.826Z,19.59
2022-08-28T17:09:30.995Z,19.48
2022-08-28T17:12:01.318Z,19.35
2022-08-28T17:14:31.562Z,19.22
2022-08-28T17:17:01.890Z,19.08
2022-08-28T17:19:32.172Z,18.99
2022-08-28T17:22:02.543Z,19.08
2022-08-28T17:24:32.776Z,18.99
2022-08-28T17:27:05.704Z,19.08
2022-08-28T17:29:33.394Z,19.04
2022-08-28T17:32:03.725Z,19.08
2022-08-28T17:34:33.989Z,19.18
2022-08-28T17:37:04.397Z,19.05
2022-08-28T17:39:34.590Z,19.05
2022-08-28T17:42:04.930Z,19.18
2022-08-28T17:44:35.204Z,19.20
2022-08-28T17:47:05.548Z,19.11
2022-08-28T17:49:35.774Z,19.11
2022-08-28T17:52:06.109Z,18.98
2022-08-28T17:54:36.376Z,19.14
2022-08-28T17:57:06.687Z,19.11
2022-08-28T17:59:36.969Z,19.14
2022-08-28T18:02:07.324Z,19.16
2022-08-28T18:04:37.643Z,18.93
2022-08-28T18:07:07.892Z,18.99
2022-08-28T18:09:38.175Z,18.99
2022-08-28T18:12:12.260Z,18.91
2022-08-28T18:14:38.749Z,19.01
2022-08-28T18:17:09.186Z,18.90
2022-08-28T18:19:39.330Z,19.05
2022-08-28T18:22:09.644Z,19.02
2022-08-28T18:24:39.899Z,19.00
2022-08-28T18:27:10.240Z,18.82
2022-08-28T18:29:40.470Z,18.99
2022-08-28T18:32:10.792Z,19.02
2022-08-28T18:34:41.051Z,18.82
2022-08-28T18:37:11.351Z,18.75
2022-08-28T18:39:42.263Z,18.54
2022-08-28T18:42:12.010Z,18.45
2022-08-28T18:44:42.228Z,18.46
2022-08-28T18:47:12.551Z,18.36
2022-08-28T18:49:42.829Z,18.31
2022-08-28T18:52:13.168Z,18.33
2022-08-28T18:54:43.472Z,18.35
2022-08-28T18:57:13.814Z,18.38
2022-08-28T18:59:44.078Z,18.35
2022-08-28T19:02:14.534Z,18.29
2022-08-28T19:04:44.701Z,18.18
2022-08-28T19:07:15.023Z,18.10
2022-08-28T19:09:45.298Z,18.06
2022-08-28T19:12:15.665Z,18.13
2022-08-28T19:14:45.952Z,18.03
2022-08-28T19:17:20.912Z,18.10
2022-08-28T19:19:46.584Z,18.09
2022-08-28T19:22:16.921Z,18.12
2022-08-28T19:24:47.219Z,18.10
2022-08-28T19:27:17.584Z,18.09
2022-08-28T19:29:47.871Z,18.07
2022-08-28T19:32:18.189Z,18.12
2022-08-28T19:34:48.491Z,18.18
2022-08-28T19:37:18.857Z,18.23
2022-08-28T19:39:56.324Z,18.31
2022-08-28T19:42:19.462Z,18.38
2022-08-28T19:44:51.220Z,18.42
2022-08-28T19:47:20.086Z,18.47
2022-08-28T19:49:50.370Z,18.49
2022-08-28T19:52:20.707Z,18.51
2022-08-28T19:54:51.014Z,18.52
2022-08-28T19:57:21.301Z,18.43
2022-08-28T19:59:51.556Z,18.40
2022-08-28T20:02:21.937Z,18.33
2022-08-28T20:04:52.192Z,18.23
2022-08-28T20:07:22.537Z,18.15
2022-08-28T20:09:52.838Z,18.16
2022-08-28T20:12:23.182Z,18.20
2022-08-28T20:14:53.466Z,18.25
2022-08-28T20:17:23.797Z,18.27
2022-08-28T20:19:54.093Z,18.31
2022-08-28T20:22:24.434Z,18.33
2022-08-28T20:24:54.737Z,18.35
2022-08-28T20:27:25.084Z,18.36
2022-08-28T20:29:55.431Z,18.35
2022-08-28T20:32:25.702Z,18.38
2022-08-28T20:34:55.972Z,18.37
2022-08-28T20:37:26.319Z,18.35
2022-08-28T20:39:56.674Z,18.35
2022-08-28T20:42:26.982Z,18.33
2022-08-28T20:44:57.244Z,18.30
2022-08-28T20:47:27.577Z,18.30
2022-08-28T20:49:57.874Z,18.26
2022-08-28T20:52:28.206Z,18.23
2022-08-28T20:54:58.503Z,18.20
2022-08-28T20:57:28.848Z,18.20
2022-08-28T21:00:03.390Z,18.18
2022-08-28T21:02:29.461Z,18.14
2022-08-28T21:05:00.106Z,18.11
2022-08-28T21:07:30.118Z,18.06
2022-08-28T21:10:07.177Z,18.01
2022-08-28T21:12:30.827Z,17.99
2022-08-28T21:15:01.117Z,17.96
2022-08-28T21:17:31.470Z,17.91
2022-08-28T21:20:03.180Z,17.88
2022-08-28T21:22:33.039Z,17.82
2022-08-28T21:25:02.497Z,17.74
2022-08-28T21:27:32.879Z,17.67
2022-08-28T21:30:03.192Z,17.66
2022-08-28T21:32:33.557Z,17.66
2022-08-28T21:35:03.879Z,17.63
2022-08-28T21:37:34.260Z,17.53
2022-08-28T21:40:04.732Z,17.49
2022-08-28T21:42:35.098Z,17.43
2022-08-28T21:45:08.495Z,17.40
2022-08-28T21:47:35.682Z,17.38
2022-08-28T21:50:06.036Z,17.34
2022-08-28T21:52:36.420Z,17.28
2022-08-28T21:55:06.771Z,17.24
2022-08-28T21:57:37.193Z,17.27
2022-08-28T22:00:07.469Z,17.23
2022-08-28T22:02:37.906Z,17.21
2022-08-28T22:05:08.206Z,17.23
2022-08-28T22:07:38.595Z,17.22
2022-08-28T22:10:08.934Z,17.22
2022-08-28T22:12:39.372Z,17.22
2022-08-28T22:15:09.680Z,17.21
2022-08-28T22:17:40.130Z,17.22
2022-08-28T22:20:10.475Z,17.26
2022-08-28T22:22:40.787Z,17.24
2022-08-28T22:25:11.117Z,17.23
2022-08-28T22:27:41.576Z,17.23
2022-08-28T22:30:11.839Z,17.25
2022-08-28T22:32:42.331Z,17.26
2022-08-28T22:35:12.552Z,17.23
2022-08-28T22:37:42.951Z,17.20
2022-08-28T22:40:13.782Z,17.19
2022-08-28T22:42:43.669Z,17.20
2022-08-28T22:45:13.968Z,17.21
2022-08-28T22:47:44.361Z,17.20
2022-08-28T22:50:14.737Z,17.16
2022-08-28T22:52:45.246Z,17.15
2022-08-28T22:55:15.448Z,17.18
2022-08-28T22:57:45.888Z,17.15
2022-08-28T23:00:16.213Z,17.08
2022-08-28T23:02:46.638Z,17.09
2022-08-28T23:05:17.039Z,17.12
2022-08-28T23:07:47.366Z,17.14
2022-08-28T23:10:17.680Z,17.15
2022-08-28T23:12:48.091Z,17.15
2022-08-28T23:15:18.432Z,17.20
2022-08-28T23:17:48.984Z,17.24
2022-08-28T23:20:19.145Z,17.24
2022-08-28T23:22:49.525Z,17.26
2022-08-28T23:25:19.949Z,17.30
2022-08-28T23:27:50.271Z,17.25
2022-08-28T23:30:20.590Z,17.22
2022-08-28T23:32:50.981Z,17.19
2022-08-28T23:35:21.331Z,17.19
2022-08-28T23:37:52.024Z,17.14
2022-08-28T23:40:22.127Z,17.08
2022-08-28T23:42:52.443Z,17.05
2022-08-28T23:45:22.522Z,17.07
2022-08-28T23:47:52.911Z,17.07
2022-08-28T23:50:23.279Z,17.07
2022-08-28T23:52:53.640Z,17.01
2022-08-28T23:55:23.978Z,17.01
2022-08-28T23:57:54.411Z,17.00
